Silvis, Illinois
Current Conditions -  °F | °C
As of 4:52 PM on Thursday 27 Nov 2014 (Local Time) from KMLI Reporting Station
Clear Clear  
Wind Chill:   Ceiling: Unl
Heat Index: 17°   Visibility: 10mi
Dew Point:   Wind: 10mph
Humidity: 52%   Direction: 300°WNW
Pressure: 30.45"   Gusts: NA
Location:  41.51°N, 90.41°W
Report Text: KMLI 272252Z 30009KT 10SM CLR M08/M17 A3045 RMK AO2 SLP322 T10831167 $
Loading
Personal Weather Stations






























Interactive Weather Map New forecast layout! Learn more

10-Day Weather Forecast

Advertisements
Track Severe Weather on mobile